createdAt,value
2023-04-01T00:02:05.548Z,98892.53
2023-04-01T00:04:32.128Z,98890.72
2023-04-01T00:25:49.123Z,98880.91
2023-04-01T00:28:20.984Z,98886.94
2023-04-01T00:30:48.493Z,98889.13
2023-04-01T00:33:15.978Z,98881.34
2023-04-01T00:35:42.923Z,98880.34
2023-04-01T00:38:09.444Z,98884.16
2023-04-01T00:40:39.949Z,98874.13
2023-04-01T00:43:20.374Z,98868.91
2023-04-01T01:07:27.900Z,98878.34
2023-04-01T01:10:12.800Z,98883.56
2023-04-01T01:12:46.715Z,98873.75
2023-04-01T01:15:22.886Z,98881.97
2023-04-01T01:18:03.651Z,98873.31
2023-04-01T01:20:33.105Z,98874.94
2023-04-01T01:23:14.854Z,98880.34
2023-04-01T02:00:56.498Z,98797.00
2023-04-01T02:27:47.281Z,98854.72
2023-04-01T02:30:20.738Z,98875.97
2023-04-01T02:32:53.811Z,98763.97
2023-04-01T02:35:21.799Z,98790.59
2023-04-01T02:37:53.318Z,98776.97
2023-04-01T02:45:39.725Z,98814.19
2023-04-01T02:48:13.891Z,98799.16
2023-04-01T02:50:41.385Z,98773.75
2023-04-01T02:53:08.120Z,98798.97
2023-04-01T02:55:36.415Z,98825.22
2023-04-01T02:58:06.749Z,98793.41
2023-04-01T03:00:33.762Z,98807.78
2023-04-01T03:03:01.792Z,98839.88
2023-04-01T03:05:28.542Z,98775.97
2023-04-01T03:08:14.690Z,98835.88
2023-04-01T03:21:37.472Z,98796.63
2023-04-01T03:24:10.152Z,98815.03
2023-04-01T03:26:39.377Z,98807.44
2023-04-01T03:29:10.932Z,98798.22
2023-04-01T03:31:42.390Z,98796.03
2023-04-01T03:34:09.882Z,98811.25
2023-04-01T03:39:31.600Z,98812.06
2023-04-01T03:42:12.885Z,98855.13
2023-04-01T03:44:47.727Z,98831.88
2023-04-01T03:48:19.140Z,98889.44
2023-04-01T03:50:58.618Z,98833.28
2023-04-01T03:53:26.000Z,98836.69
2023-04-01T03:55:55.468Z,98812.69
2023-04-01T03:58:31.487Z,98825.91
2023-04-01T04:01:00.179Z,98864.16
2023-04-01T04:03:27.366Z,98801.44
2023-04-01T04:05:57.550Z,98813.06
2023-04-01T04:11:06.494Z,98834.72
2023-04-01T04:13:34.657Z,98861.59
2023-04-01T04:16:04.753Z,98895.66
2023-04-01T04:18:46.035Z,98838.72
2023-04-01T04:22:21.857Z,98833.72
2023-04-01T04:24:59.522Z,98900.88
2023-04-01T04:30:35.164Z,98821.13
2023-04-01T04:35:57.842Z,98814.91
2023-04-01T04:38:28.487Z,98891.25
2023-04-01T04:40:57.703Z,98898.28
2023-04-01T04:43:24.375Z,98866.38
2023-04-01T04:45:58.369Z,98845.75
2023-04-01T04:48:26.900Z,98859.81
2023-04-01T04:50:53.483Z,98834.38
2023-04-01T04:53:22.756Z,98845.38
2023-04-01T04:56:02.785Z,98827.13
2023-04-01T04:58:29.608Z,98886.47
2023-04-01T05:00:56.481Z,98892.09
2023-04-01T05:03:25.449Z,98872.41
2023-04-01T05:06:12.243Z,98935.19
2023-04-01T05:08:40.598Z,98876.84
2023-04-01T05:11:17.248Z,98877.06
2023-04-01T05:13:58.696Z,98940.84
2023-04-01T05:16:28.401Z,98891.69
2023-04-01T05:21:40.518Z,98952.09
2023-04-01T05:29:30.916Z,98882.47
2023-04-01T05:35:07.092Z,98952.88
2023-04-01T05:37:51.701Z,98891.91
2023-04-01T05:40:43.101Z,98956.50
2023-04-01T05:43:39.643Z,98910.56
2023-04-01T05:46:06.663Z,98933.41
2023-04-01T05:48:38.793Z,98929.81
2023-04-01T05:51:06.535Z,98922.19
2023-04-01T05:53:33.668Z,98945.66
2023-04-01T05:56:04.331Z,98943.84
2023-04-01T05:58:36.522Z,98918.38
2023-04-01T06:01:11.315Z,98926.22
2023-04-01T06:03:41.189Z,98985.19
2023-04-01T06:06:16.777Z,98992.00
2023-04-01T06:08:44.922Z,98926.81
2023-04-01T06:11:22.777Z,98945.03
2023-04-01T06:14:04.854Z,98976.78
2023-04-01T06:16:39.212Z,98994.44
2023-04-01T06:19:24.706Z,98979.78
2023-04-01T06:22:41.055Z,99006.88
2023-04-01T06:25:28.024Z,98978.38
2023-04-01T06:46:51.146Z,99022.50
2023-04-01T06:50:06.095Z,99022.09
2023-04-01T06:52:45.428Z,99019.25
2023-04-01T06:55:24.058Z,99034.94
2023-04-01T06:57:55.917Z,99018.88
2023-04-01T07:00:32.079Z,98994.78
2023-04-01T07:03:13.643Z,98948.25
2023-04-01T07:05:51.451Z,98978.91
2023-04-01T07:08:39.686Z,98944.59
2023-04-01T07:11:10.383Z,98934.75
2023-04-01T07:13:39.867Z,99033.31
2023-04-01T07:16:38.963Z,98958.34
2023-04-01T07:19:44.107Z,99031.50
2023-04-01T07:22:39.341Z,98970.94
2023-04-01T07:25:18.862Z,98958.91
2023-04-01T07:28:04.800Z,98953.28
2023-04-01T07:30:53.745Z,99012.00
2023-04-01T07:34:21.914Z,99052.59
2023-04-01T07:37:21.923Z,99067.63
2023-04-01T07:40:02.912Z,99060.56
2023-04-01T07:42:44.361Z,98960.75
2023-04-01T07:45:58.070Z,99066.59
2023-04-01T07:48:52.561Z,99048.59
2023-04-01T07:51:40.134Z,99071.84
2023-04-01T07:54:33.254Z,98969.63
2023-04-01T07:57:25.913Z,98997.91
2023-04-01T08:00:17.890Z,99081.09
2023-04-01T08:02:54.834Z,99089.91
2023-04-01T08:05:37.487Z,99087.03
2023-04-01T08:08:38.056Z,99090.22
2023-04-01T08:11:29.656Z,99097.72
2023-04-01T08:22:46.313Z,99041.72
2023-04-01T08:25:32.256Z,99120.59
2023-04-01T08:28:53.293Z,99086.88
2023-04-01T08:39:45.277Z,99016.63
2023-04-01T08:42:39.755Z,99116.69
2023-04-01T08:45:32.800Z,99123.78
2023-04-01T08:48:43.662Z,99129.25
2023-04-01T08:51:32.514Z,99138.72
2023-04-01T08:54:33.159Z,99128.63
2023-04-01T08:57:00.065Z,99134.44
2023-04-01T09:00:01.617Z,99075.19
2023-04-01T09:02:43.332Z,99137.44
2023-04-01T09:05:23.184Z,99143.75
2023-04-01T09:08:11.628Z,99077.84
2023-04-01T09:11:03.308Z,99093.50
2023-04-01T09:17:46.329Z,99153.50
2023-04-01T09:20:38.247Z,99154.47
2023-04-01T09:23:39.005Z,99114.97
2023-04-01T09:26:43.542Z,99164.59
2023-04-01T09:29:53.237Z,99168.22
2023-04-01T09:33:07.808Z,99165.16
2023-04-01T09:43:06.537Z,99171.38
2023-04-01T09:46:00.178Z,99069.41
2023-04-01T09:49:22.481Z,99186.69
2023-04-01T09:52:53.272Z,99115.75
2023-04-01T09:55:48.409Z,99131.91
2023-04-01T09:58:53.469Z,99186.47
2023-04-01T10:01:50.977Z,99191.06
2023-04-01T10:04:48.483Z,99193.06
2023-04-01T10:07:14.919Z,99192.31
2023-04-01T10:10:35.238Z,99193.69
2023-04-01T10:13:29.991Z,99201.47
2023-04-01T10:16:58.913Z,99210.16
2023-04-01T10:19:46.649Z,99202.44
2023-04-01T10:22:39.400Z,99203.69
2023-04-01T10:25:24.079Z,99204.38
2023-04-01T10:28:38.247Z,99125.72
2023-04-01T10:31:23.206Z,99214.56
2023-04-01T10:34:17.194Z,99218.06
2023-04-01T10:37:18.250Z,99088.31
2023-04-01T10:39:59.624Z,99220.97
2023-04-01T10:42:50.281Z,99220.09
2023-04-01T10:45:39.809Z,99226.06
2023-04-01T10:48:30.398Z,99228.88
2023-04-01T10:55:20.793Z,99234.97
2023-04-01T10:58:04.477Z,99199.97
2023-04-01T11:00:39.940Z,99232.44
2023-04-01T11:03:34.528Z,99238.63
2023-04-01T11:06:20.516Z,99235.97
2023-04-01T11:09:14.835Z,99234.84
2023-04-01T11:11:53.120Z,99239.84
2023-04-01T11:14:53.485Z,99240.84
2023-04-01T11:17:38.397Z,99230.66
2023-04-01T11:23:09.769Z,99218.25
2023-04-01T11:28:31.560Z,99221.19
2023-04-01T11:34:33.581Z,99236.00
2023-04-01T11:37:28.465Z,99254.56
2023-04-01T11:40:13.407Z,99261.91
2023-04-01T11:42:57.319Z,99269.75
2023-04-01T11:45:40.817Z,99265.09
2023-04-01T11:48:47.633Z,99269.56
2023-04-01T11:51:26.147Z,99278.91
2023-04-01T11:54:20.443Z,99235.72
2023-04-01T11:57:03.229Z,99279.69
2023-04-01T11:59:48.578Z,99297.25
2023-04-01T12:02:48.392Z,99289.25
2023-04-01T12:05:21.075Z,99295.69
2023-04-01T12:07:58.681Z,99293.84
2023-04-01T12:10:34.246Z,99302.28
2023-04-01T12:13:04.136Z,99303.28
2023-04-01T12:15:38.038Z,99303.31
2023-04-01T12:18:04.558Z,99307.84
2023-04-01T12:23:48.998Z,99320.56
2023-04-01T12:26:33.864Z,99321.84
2023-04-01T12:29:19.151Z,99323.16
2023-04-01T12:31:51.987Z,99326.38
2023-04-01T12:34:18.627Z,99326.91
2023-04-01T12:40:25.834Z,99336.63
2023-04-01T12:43:10.295Z,99337.38
2023-04-01T15:21:24.047Z,99545.28
2023-04-01T15:23:58.431Z,99476.84
2023-04-01T15:26:39.929Z,99567.81
2023-04-01T15:29:34.239Z,99513.47
2023-04-01T15:32:09.293Z,99567.00
2023-04-01T15:35:11.081Z,99579.09
2023-04-01T15:37:45.806Z,99589.19
2023-04-01T15:40:34.180Z,99596.03
2023-04-01T15:43:22.925Z,99586.59
2023-04-01T15:46:32.853Z,99598.50
2023-04-01T15:54:27.961Z,99614.03
2023-04-01T15:57:21.389Z,99619.88
2023-04-01T15:59:56.944Z,99623.72
2023-04-01T16:02:45.128Z,99623.91
2023-04-01T16:05:29.699Z,99639.25
2023-04-01T16:08:41.725Z,99641.88
2023-04-01T16:11:17.263Z,99645.28
2023-04-01T16:13:53.431Z,99651.94
2023-04-01T16:16:25.552Z,99667.44
2023-04-01T16:19:35.421Z,99668.84
2023-04-01T16:22:29.764Z,99680.31
2023-04-01T16:25:18.504Z,99675.84
2023-04-01T16:28:12.895Z,99683.22
2023-04-01T16:30:43.784Z,99691.88
2023-04-01T16:33:36.233Z,99698.47
2023-04-01T16:36:15.232Z,99692.97
2023-04-01T16:41:42.200Z,99718.03
2023-04-01T16:44:22.836Z,99718.03
2023-04-01T16:47:08.611Z,99730.88
2023-04-01T16:50:01.166Z,99717.44
2023-04-01T16:52:52.075Z,99731.72
2023-04-01T16:55:21.734Z,99730.44
2023-04-01T16:58:00.513Z,99668.56
2023-04-01T17:00:28.442Z,99765.28
2023-04-01T17:03:21.956Z,99742.78
2023-04-01T17:08:41.492Z,99788.56
2023-04-01T17:14:23.155Z,99800.34
2023-04-01T17:17:18.954Z,99800.59
2023-04-01T17:20:03.238Z,99797.91
2023-04-01T17:25:19.018Z,99828.66
2023-04-01T17:27:53.056Z,99773.91
2023-04-01T17:33:26.179Z,99748.28
2023-04-01T17:38:28.946Z,99863.28
2023-04-01T17:41:09.891Z,99873.38
2023-04-01T17:44:05.554Z,99883.47
2023-04-01T17:46:57.976Z,99887.44
2023-04-01T17:49:48.859Z,99892.75
2023-04-01T17:52:27.720Z,99900.94
2023-04-01T17:54:59.777Z,99912.28
2023-04-01T17:57:54.608Z,99911.47
2023-04-01T18:01:00.000Z,99930.75
2023-04-01T18:04:01.256Z,99934.44
2023-04-01T18:07:09.203Z,99940.97
2023-04-01T18:09:39.646Z,99921.31
2023-04-01T18:12:25.226Z,99808.97
2023-04-01T18:15:17.504Z,99882.97
2023-04-01T18:17:49.830Z,99974.09
2023-04-01T18:20:32.033Z,99971.94
2023-04-01T18:23:17.564Z,99984.44
2023-04-01T18:25:54.650Z,99983.06
2023-04-01T18:28:41.221Z,100002.16
2023-04-01T18:31:17.526Z,99921.69
2023-04-01T18:34:15.810Z,100013.78
2023-04-01T18:36:50.380Z,100027.28
2023-04-01T18:39:47.339Z,100031.84
2023-04-01T18:42:34.271Z,100041.19
2023-04-01T18:45:34.889Z,100043.78
2023-04-01T18:48:31.979Z,100060.63
2023-04-01T18:51:04.376Z,100063.75
2023-04-01T18:53:49.900Z,100065.09
2023-04-01T18:56:29.908Z,100069.38
2023-04-01T18:59:07.062Z,100088.75
2023-04-01T19:02:15.213Z,100086.34
2023-04-01T19:04:54.750Z,100084.72
2023-04-01T19:07:41.368Z,100093.56
2023-04-01T19:10:21.139Z,100116.69
2023-04-01T19:13:03.149Z,100121.56
2023-04-01T19:15:48.937Z,100124.03
2023-04-01T19:18:36.998Z,100133.47
2023-04-01T19:21:27.045Z,100144.06
2023-04-01T19:24:05.000Z,100126.84
2023-04-01T19:26:40.875Z,100159.72
2023-04-01T19:29:32.001Z,100165.06
2023-04-01T19:32:20.185Z,100165.94
2023-04-01T19:34:51.882Z,100170.66
2023-04-01T19:37:26.421Z,100161.34
2023-04-01T19:40:08.245Z,100180.75
2023-04-01T19:42:58.517Z,100184.47
2023-04-01T19:45:31.658Z,100187.88
2023-04-01T19:48:13.302Z,100186.44
2023-04-01T19:50:44.738Z,100202.56
2023-04-01T19:53:26.361Z,100210.81
2023-04-01T19:56:17.808Z,100203.84
2023-04-01T19:58:56.437Z,100221.09
2023-04-01T20:02:04.253Z,100225.50
2023-04-01T20:04:42.730Z,100232.16
2023-04-01T20:07:31.170Z,100234.75
2023-04-01T20:10:21.703Z,100247.59
2023-04-01T20:13:33.409Z,100238.00
2023-04-01T20:16:05.016Z,100259.31
2023-04-01T20:18:37.039Z,100235.84
2023-04-01T20:21:16.990Z,100254.56
2023-04-01T20:23:53.749Z,100275.88
2023-04-01T20:26:33.010Z,100286.81
2023-04-01T20:29:27.779Z,100292.81
2023-04-01T20:32:14.706Z,100292.50
2023-04-01T20:35:01.689Z,100307.13
2023-04-01T20:37:53.351Z,100297.50
2023-04-01T20:40:39.277Z,100260.50
2023-04-01T20:43:11.101Z,100318.78
2023-04-01T20:46:09.796Z,100265.47
2023-04-01T20:48:38.945Z,100328.84
2023-04-01T20:51:16.266Z,100338.06
2023-04-01T20:53:56.774Z,100334.66
2023-04-01T20:56:27.081Z,100341.69
2023-04-01T20:59:14.531Z,100358.00
2023-04-01T21:02:09.721Z,100362.38
2023-04-01T21:05:15.600Z,100368.34
2023-04-01T21:07:50.840Z,100367.53
2023-04-01T21:10:38.139Z,100382.31
2023-04-01T21:13:24.388Z,100379.22
2023-04-01T21:15:50.901Z,100384.72
2023-04-01T21:18:30.899Z,100392.03
2023-04-01T21:21:18.950Z,100413.13
2023-04-01T21:24:06.636Z,100413.28
2023-04-01T21:26:53.534Z,100419.41
2023-04-01T21:29:28.592Z,100425.13
2023-04-01T21:32:09.456Z,100426.84
2023-04-01T21:34:43.001Z,100442.13
2023-04-01T21:37:40.343Z,100444.91
2023-04-01T21:40:50.220Z,100455.25
2023-04-01T21:43:37.341Z,100451.31
2023-04-01T21:46:28.743Z,100463.38
2023-04-01T21:49:08.684Z,100461.75
2023-04-01T21:51:44.952Z,100467.25
2023-04-01T21:54:45.570Z,100475.75
2023-04-01T21:57:49.129Z,100478.19
2023-04-01T22:00:46.563Z,100491.47
2023-04-01T22:03:38.034Z,100498.44
2023-04-01T22:06:22.851Z,100513.22
2023-04-01T22:09:36.474Z,100502.91
2023-04-01T22:12:15.841Z,100520.13
2023-04-01T22:14:57.624Z,100537.16
2023-04-01T22:17:27.145Z,100536.00
2023-04-01T22:20:22.308Z,100495.50
2023-04-01T22:23:32.159Z,100553.47
2023-04-01T22:26:13.977Z,100554.72
2023-04-01T22:28:59.215Z,100558.03
2023-04-01T22:31:37.634Z,100573.88
2023-04-01T22:34:14.750Z,100578.53
2023-04-01T22:37:20.720Z,100564.25
2023-04-01T22:40:02.298Z,100591.84
2023-04-01T22:42:34.668Z,100593.41
2023-04-01T22:45:13.604Z,100598.59
2023-04-01T22:48:02.847Z,100604.50
2023-04-01T22:50:40.839Z,100610.50
2023-04-01T22:53:13.338Z,100613.25
2023-04-01T22:55:52.700Z,100610.94
2023-04-01T22:58:31.281Z,100624.34
2023-04-01T23:01:07.388Z,100617.75
2023-04-01T23:03:41.197Z,100636.09
2023-04-01T23:06:18.530Z,100622.19
2023-04-01T23:09:12.468Z,100638.41
2023-04-01T23:11:47.001Z,100638.84
2023-04-01T23:14:14.639Z,100648.41
2023-04-01T23:16:45.815Z,100652.25
2023-04-01T23:19:17.446Z,100655.66
2023-04-01T23:21:47.904Z,100664.03
2023-04-01T23:24:23.481Z,100665.66
2023-04-01T23:26:58.926Z,100672.75
2023-04-01T23:29:26.980Z,100676.44
2023-04-01T23:32:01.200Z,100671.94
2023-04-01T23:34:36.466Z,100691.75
2023-04-01T23:37:16.991Z,100687.50
2023-04-01T23:39:46.486Z,100696.13
2023-04-01T23:42:33.353Z,100704.72
2023-04-01T23:45:03.927Z,100709.41
2023-04-01T23:47:33.787Z,100713.22
2023-04-01T23:50:14.842Z,100715.50
2023-04-01T23:52:44.706Z,100726.31
2023-04-01T23:55:26.280Z,100747.06
2023-04-01T23:58:16.263Z,100744.22
